Time;durP1;ratioP1;P1;durP2;ratioP2;P2;SDS_P1;SDS_P2;PMS_P1;PMS_P2;Temp;Humidity;BMP_temperature;BMP_pressure;BME280_temperature;BME280_humidity;BME280_pressure;Samples;Min_cycle;Max_cycle;Signal;HPM_P1;HPM_P2
2023/05/02 00:00:21;;;;;;;;;13.20;13.20;;;;;14.15;42.28;99309.13;5068981;28;8869;-81
2023/05/02 00:03:10;;;;;;;;;16.80;14.60;;;;;14.09;42.39;99312.88;5039239;28;8895;-81
2023/05/02 00:05:40;;;;;;;;;14.00;13.00;;;;;14.12;42.45;99304.81;5054135;28;8884;-81
2023/05/02 00:08:09;;;;;;;;;14.00;12.20;;;;;14.14;42.43;99302.97;5058856;28;8853;-80
2023/05/02 00:10:39;;;;;;;;;11.20;11.20;;;;;14.19;42.18;99300.19;5050113;28;8857;-81
2023/05/02 00:13:07;;;;;;;;;13.40;12.40;;;;;14.21;42.27;99295.69;5049687;28;8861;-81
2023/05/02 00:15:36;;;;;;;;;13.00;12.00;;;;;14.12;42.52;99294.25;5051058;28;8975;-81
2023/05/02 00:18:05;;;;;;;;;15.80;15.40;;;;;14.17;42.39;99299.34;5050254;28;8844;-82
2023/05/02 00:20:34;;;;;;;;;16.20;16.20;;;;;14.19;42.38;99298.38;5048937;28;8871;-80
2023/05/02 00:23:03;;;;;;;;;15.40;14.40;;;;;14.11;42.40;99297.84;5061483;28;8874;-81
2023/05/02 00:25:31;;;;;;;;;12.80;12.80;;;;;14.13;42.53;99292.47;5070312;28;8838;-81
2023/05/02 00:28:02;;;;;;;;;13.80;12.20;;;;;14.16;42.51;99293.22;5069916;28;8931;-81
2023/05/02 00:30:30;;;;;;;;;12.80;11.40;;;;;14.07;42.60;99291.81;5017728;28;9012;-81
2023/05/02 00:32:59;;;;;;;;;11.00;11.00;;;;;14.08;42.63;99300.59;5051726;28;9610;-81
2023/05/02 00:35:28;;;;;;;;;14.80;12.80;;;;;14.07;42.58;99297.09;5018611;28;8893;-80
2023/05/02 00:38:17;;;;;;;;;11.20;11.20;;;;;14.06;42.75;99294.50;5085862;28;8926;-81
2023/05/02 00:40:46;;;;;;;;;9.40;9.40;;;;;13.87;43.28;99295.22;5054142;28;8842;-80
2023/05/02 00:43:17;;;;;;;;;13.00;12.60;;;;;13.88;43.28;99296.06;5027050;28;8963;-79
2023/05/02 00:45:46;;;;;;;;;14.00;13.40;;;;;13.79;43.45;99305.19;5026776;28;8898;-80
2023/05/02 00:48:16;;;;;;;;;9.00;9.00;;;;;13.81;43.45;99302.50;5009987;28;9632;-80
2023/05/02 00:50:45;;;;;;;;;8.80;8.20;;;;;13.78;43.63;99303.47;4978874;28;8854;-81
2023/05/02 00:53:15;;;;;;;;;15.00;13.60;;;;;13.80;43.67;99299.00;5018144;28;9661;-81
2023/05/02 00:55:44;;;;;;;;;15.40;14.20;;;;;13.82;43.67;99296.31;5026828;28;8930;-80
2023/05/02 00:58:15;;;;;;;;;12.20;12.20;;;;;13.73;44.01;99296.63;5015227;28;8866;-82
2023/05/02 01:01:03;;;;;;;;;15.20;15.20;;;;;13.71;44.12;99299.31;5031072;28;8866;-80
2023/05/02 01:03:42;;;;;;;;;12.20;12.20;;;;;13.62;44.09;99294.38;4969319;28;8870;-81
2023/05/02 01:06:21;;;;;;;;;12.00;12.00;;;;;13.66;44.18;99302.16;4952104;28;9018;-80
2023/05/02 01:08:55;;;;;;;;;12.60;12.60;;;;;13.67;44.14;99298.56;4985489;28;8839;-80
2023/05/02 01:11:38;;;;;;;;;15.40;14.60;;;;;13.62;44.38;99292.63;4957577;28;9005;-81
2023/05/02 01:14:11;;;;;;;;;15.00;14.20;;;;;13.49;44.61;99294.00;4988533;28;8959;-81
2023/05/02 01:16:45;;;;;;;;;15.80;15.00;;;;;13.50;44.61;99287.78;5010448;28;8863;-80
2023/05/02 01:19:25;;;;;;;;;11.40;11.40;;;;;13.50;44.68;99301.00;5010124;28;8840;-81
2023/05/02 01:21:56;;;;;;;;;12.80;12.80;;;;;13.36;44.88;99298.00;5011629;28;8888;-80
2023/05/02 01:24:28;;;;;;;;;14.00;12.00;;;;;13.45;44.71;99295.91;5013598;28;8881;-79
2023/05/02 01:27:07;;;;;;;;;13.20;12.80;;;;;13.26;44.79;99295.72;5042626;28;8863;-80
2023/05/02 01:29:40;;;;;;;;;11.60;11.00;;;;;13.32;44.93;99291.97;5009851;28;8847;-80
2023/05/02 01:32:10;;;;;;;;;13.00;12.60;;;;;13.22;45.33;99287.94;5030286;28;8884;-79
2023/05/02 01:34:43;;;;;;;;;11.40;10.80;;;;;13.24;45.37;99294.00;5012498;28;8857;-81
2023/05/02 01:37:13;;;;;;;;;9.60;9.60;;;;;13.29;44.88;99300.84;5028119;28;8968;-80
2023/05/02 01:39:43;;;;;;;;;13.40;11.80;;;;;13.23;45.12;99294.94;5046529;28;8873;-80
2023/05/02 01:42:13;;;;;;;;;12.00;12.00;;;;;13.30;44.78;99299.94;5053084;28;8842;-81
2023/05/02 01:44:46;;;;;;;;;12.80;12.80;;;;;13.34;44.66;99294.56;5068534;28;8870;-80
2023/05/02 01:47:15;;;;;;;;;13.60;13.60;;;;;13.36;44.52;99290.09;5016110;28;8954;-80
2023/05/02 01:49:46;;;;;;;;;12.20;11.60;;;;;13.27;44.55;99293.91;5034463;28;8931;-81
2023/05/02 01:52:16;;;;;;;;;13.60;13.60;;;;;13.20;45.06;99292.41;5029203;28;8907;-81
2023/05/02 01:54:45;;;;;;;;;11.80;11.80;;;;;13.31;44.44;99285.81;5049039;28;8881;-80
2023/05/02 01:57:17;;;;;;;;;12.80;12.60;;;;;13.29;44.73;99282.38;5050472;28;9560;-81
2023/05/02 01:59:50;;;;;;;;;13.40;13.40;;;;;13.27;44.69;99278.94;5067009;28;8920;-80
2023/05/02 02:02:21;;;;;;;;;14.40;14.00;;;;;13.29;44.30;99281.53;5048902;28;8861;-81
2023/05/02 02:04:51;;;;;;;;;11.80;11.40;;;;;13.31;44.27;99282.31;5059485;28;8838;-81
2023/05/02 02:07:21;;;;;;;;;10.40;10.40;;;;;13.27;44.14;99286.84;5065476;28;8923;-81
2023/05/02 02:09:49;;;;;;;;;13.00;12.20;;;;;13.34;43.82;99290.16;5067029;28;8835;-82
2023/05/02 02:12:26;;;;;;;;;12.00;12.00;;;;;13.26;43.95;99278.97;5067894;28;8885;-81
2023/05/02 02:15:03;;;;;;;;;11.80;10.80;;;;;13.21;43.85;99281.81;5066806;28;8862;-82
2023/05/02 02:17:40;;;;;;;;;11.60;10.40;;;;;13.17;43.63;99285.47;5048173;28;8868;-82
2023/05/02 02:20:12;;;;;;;;;10.80;10.80;;;;;13.11;43.60;99286.56;5047303;28;8848;-81
2023/05/02 02:22:43;;;;;;;;;11.00;10.00;;;;;13.11;43.47;99288.34;5061065;28;8858;-82
2023/05/02 02:25:15;;;;;;;;;12.60;11.40;;;;;13.15;43.13;99284.66;5068044;28;8869;-82
2023/05/02 02:27:44;;;;;;;;;11.40;10.20;;;;;13.11;43.21;99278.63;5066265;28;8965;-82
2023/05/02 02:30:15;;;;;;;;;11.00;11.00;;;;;13.07;43.45;99284.06;5066179;28;8842;-82
2023/05/02 02:32:43;;;;;;;;;12.20;11.60;;;;;13.08;43.20;99277.88;5050052;28;8854;-82
2023/05/02 02:35:13;;;;;;;;;13.40;11.80;;;;;12.98;43.43;99265.94;5066264;28;8893;-82
2023/05/02 02:37:47;;;;;;;;;12.80;12.60;;;;;12.95;43.48;99260.75;5066682;28;8870;-81
2023/05/02 02:40:23;;;;;;;;;11.60;10.80;;;;;12.86;43.65;99268.09;5066596;28;8862;-81
2023/05/02 02:43:00;;;;;;;;;9.20;8.00;;;;;12.85;43.65;99269.00;5067970;28;8862;-80
2023/05/02 02:45:37;;;;;;;;;11.20;11.20;;;;;12.85;43.55;99271.63;5075618;28;8850;-80
2023/05/02 02:48:16;;;;;;;;;11.80;11.60;;;;;12.81;43.66;99275.25;5066821;28;8828;-80
2023/05/02 02:50:59;;;;;;;;;10.20;10.20;;;;;12.86;43.20;99262.81;5068638;28;8861;-83
2023/05/02 02:53:40;;;;;;;;;8.00;7.80;;;;;12.82;43.22;99260.28;5062241;28;8951;-82
2023/05/02 02:56:15;;;;;;;;;11.60;10.00;;;;;12.84;43.28;99263.72;5057950;28;8853;-81
2023/05/02 02:58:54;;;;;;;;;12.00;12.00;;;;;12.75;43.46;99278.13;5033963;28;8843;-82
2023/05/02 03:01:27;;;;;;;;;10.80;10.80;;;;;12.72;43.32;99273.78;5068248;28;8889;-81
2023/05/02 03:03:57;;;;;;;;;12.00;11.00;;;;;12.66;43.59;99275.78;5070025;28;8888;-80
2023/05/02 03:06:27;;;;;;;;;12.20;12.20;;;;;12.57;43.58;99276.09;5069982;28;8868;-80
2023/05/02 03:08:56;;;;;;;;;12.80;12.00;;;;;12.58;43.60;99267.25;5072516;28;8862;-80
2023/05/02 03:11:30;;;;;;;;;12.60;12.00;;;;;12.49;44.22;99266.66;5052351;28;8875;-81
2023/05/02 03:13:59;;;;;;;;;12.20;12.20;;;;;12.53;43.58;99270.91;5052232;28;8860;-80
2023/05/02 03:16:36;;;;;;;;;11.80;11.60;;;;;12.53;43.55;99270.06;5071813;28;8873;-80
2023/05/02 03:19:08;;;;;;;;;12.00;10.20;;;;;12.58;43.55;99275.16;5088982;28;8849;-82
2023/05/02 03:21:38;;;;;;;;;26.40;24.60;;;;;12.66;43.44;99270.53;5087980;28;8858;-81
2023/05/02 03:24:14;;;;;;;;;14.60;14.60;;;;;12.58;43.55;99280.44;5071984;28;8988;-82
2023/05/02 03:26:47;;;;;;;;;12.40;12.00;;;;;12.56;43.60;99285.78;5027932;28;9020;-82
2023/05/02 03:29:20;;;;;;;;;11.60;11.40;;;;;12.50;43.79;99281.59;5028765;28;8860;-81
2023/05/02 03:31:50;;;;;;;;;13.80;12.80;;;;;12.49;43.64;99285.13;5029357;28;8930;-79
2023/05/02 03:34:21;;;;;;;;;12.20;12.20;;;;;12.46;43.83;99287.00;5012429;28;8877;-81
2023/05/02 03:36:53;;;;;;;;;12.00;10.60;;;;;12.39;44.20;99288.09;5011222;28;8863;-81
2023/05/02 03:39:22;;;;;;;;;15.40;14.00;;;;;12.33;44.16;99279.50;5012039;28;8864;-81
2023/05/02 03:41:51;;;;;;;;;22.20;20.20;;;;;12.39;44.63;99283.72;5012294;28;8848;-80
2023/05/02 03:44:23;;;;;;;;;14.40;14.40;;;;;12.44;44.39;99284.41;4965520;28;8868;-82
2023/05/02 03:46:54;;;;;;;;;11.80;11.60;;;;;12.47;44.38;99273.78;4995466;28;8870;-80
2023/05/02 03:49:23;;;;;;;;;9.40;9.40;;;;;12.48;44.30;99275.47;5011606;28;8879;-81
2023/05/02 03:51:54;;;;;;;;;11.40;11.00;;;;;12.53;44.28;99281.47;5010514;28;8855;-80
2023/05/02 03:54:28;;;;;;;;;16.20;15.60;;;;;12.48;45.08;99280.75;5008537;28;8886;-81
2023/05/02 03:56:57;;;;;;;;;18.60;18.20;;;;;12.42;45.14;99285.38;4995036;28;8850;-80
2023/05/02 03:59:32;;;;;;;;;14.60;14.00;;;;;12.43;45.08;99293.25;5049042;28;8869;-80
2023/05/02 04:02:10;;;;;;;;;12.00;12.00;;;;;12.46;44.97;99294.91;5032783;28;8887;-81
2023/05/02 04:04:43;;;;;;;;;12.60;11.60;;;;;12.40;44.88;99295.13;5049123;28;8877;-80
2023/05/02 04:07:18;;;;;;;;;13.80;13.80;;;;;12.50;44.83;99301.78;5052613;28;8827;-81
2023/05/02 04:09:51;;;;;;;;;15.80;13.60;;;;;12.53;44.30;99302.56;5068797;28;9616;-82
2023/05/02 04:12:21;;;;;;;;;13.40;12.20;;;;;12.46;44.51;99298.38;5068582;28;8984;-81
2023/05/02 04:14:52;;;;;;;;;13.60;12.00;;;;;12.41;44.79;99297.69;5068874;28;8889;-80
2023/05/02 04:17:29;;;;;;;;;11.80;11.60;;;;;12.44;44.80;99305.50;5069051;28;8846;-80
2023/05/02 04:19:58;;;;;;;;;21.20;21.20;;;;;12.54;44.38;99306.03;5003633;28;9680;-81
2023/05/02 04:22:31;;;;;;;;;17.20;14.80;;;;;12.57;44.29;99298.03;5031760;28;8854;-82
2023/05/02 04:25:05;;;;;;;;;28.25;26.75;;;;;12.61;44.35;99304.09;5052144;28;8967;-82
2023/05/02 04:27:37;;;;;;;;;11.80;11.20;;;;;12.69;44.03;99304.69;5069399;28;8884;-82
2023/05/02 04:30:10;;;;;;;;;13.00;12.60;;;;;12.78;44.12;99301.75;5021896;28;8873;-80
2023/05/02 04:32:41;;;;;;;;;11.40;11.00;;;;;12.80;43.89;99307.81;5074236;28;8834;-82
2023/05/02 04:35:14;;;;;;;;;11.00;10.40;;;;;12.92;43.82;99312.72;5071646;28;8876;-80
2023/05/02 04:37:43;;;;;;;;;11.00;11.00;;;;;13.00;43.75;99311.59;5051966;28;8877;-80
2023/05/02 04:40:13;;;;;;;;;11.80;11.80;;;;;13.08;43.91;99310.41;5069116;28;8877;-81
2023/05/02 04:42:44;;;;;;;;;11.60;10.80;;;;;13.13;43.92;99312.91;5087626;28;8972;-81
2023/05/02 04:45:17;;;;;;;;;11.00;11.00;;;;;13.31;43.50;99314.84;5070853;28;8912;-81
2023/05/02 04:47:48;;;;;;;;;9.40;9.20;;;;;13.41;43.38;99314.53;5053402;28;8866;-82
2023/05/02 04:50:17;;;;;;;;;13.00;12.20;;;;;13.44;43.59;99307.34;5050499;28;8867;-82
2023/05/02 04:52:46;;;;;;;;;10.80;10.80;;;;;13.41;43.72;99311.88;5059675;28;9671;-81
2023/05/02 04:55:15;;;;;;;;;14.20;13.20;;;;;13.46;43.55;99317.88;5052946;28;8846;-80
2023/05/02 04:57:45;;;;;;;;;11.60;11.60;;;;;13.54;43.51;99323.72;5070422;28;8869;-80
2023/05/02 05:00:16;;;;;;;;;12.60;12.20;;;;;13.34;44.16;99326.25;5069264;28;8874;-83
2023/05/02 05:02:45;;;;;;;;;11.40;11.40;;;;;13.43;43.63;99323.25;5069369;28;8849;-82
2023/05/02 05:05:16;;;;;;;;;10.00;10.00;;;;;13.54;43.67;99318.44;5070147;28;8866;-80
2023/05/02 05:07:45;;;;;;;;;12.20;12.20;;;;;13.66;43.51;99317.16;5076809;28;8927;-80
2023/05/02 05:10:15;;;;;;;;;9.60;9.60;;;;;13.56;43.87;99319.25;5049347;28;8890;-80
2023/05/02 05:12:48;;;;;;;;;11.40;10.00;;;;;13.66;43.55;99314.50;5048486;28;8857;-81
2023/05/02 05:15:19;;;;;;;;;13.00;11.80;;;;;13.73;43.59;99317.75;5067153;28;8854;-80
2023/05/02 05:17:53;;;;;;;;;11.60;11.60;;;;;13.73;43.79;99312.47;5067285;28;8861;-80
2023/05/02 05:20:23;;;;;;;;;13.40;12.40;;;;;13.88;43.69;99318.09;5068484;28;8939;-80
2023/05/02 05:22:55;;;;;;;;;12.40;10.80;;;;;13.84;43.75;99318.25;5010698;28;8999;-81
2023/05/02 05:25:26;;;;;;;;;15.40;11.80;;;;;13.95;43.56;99315.22;5048198;28;8902;-80
2023/05/02 05:27:56;;;;;;;;;12.00;12.00;;;;;14.03;43.61;99328.97;5048118;28;8847;-81
2023/05/02 05:30:26;;;;;;;;;10.00;9.60;;;;;13.93;43.92;99323.19;5067199;28;8888;-81
2023/05/02 05:32:55;;;;;;;;;12.40;11.60;;;;;14.18;43.40;99325.72;5066979;28;8841;-82
2023/05/02 05:35:25;;;;;;;;;13.60;12.60;;;;;14.25;43.14;99321.06;5066708;28;8858;-81
2023/05/02 05:37:55;;;;;;;;;10.80;10.60;;;;;14.28;43.09;99316.53;5051658;28;8924;-81
2023/05/02 05:40:24;;;;;;;;;12.40;11.20;;;;;14.34;43.08;99318.06;5056346;28;8956;-83
2023/05/02 05:42:57;;;;;;;;;11.00;11.00;;;;;14.36;43.27;99323.28;5066792;28;8834;-81
2023/05/02 05:45:33;;;;;;;;;13.20;13.20;;;;;14.46;42.96;99322.84;5067165;28;8862;-83
2023/05/02 05:48:02;;;;;;;;;8.00;8.00;;;;;14.51;42.84;99330.59;5066562;28;9629;-81
2023/05/02 05:50:36;;;;;;;;;11.20;10.80;;;;;14.57;42.46;99333.00;5051007;28;8884;-80
2023/05/02 05:53:06;;;;;;;;;12.80;12.00;;;;;14.68;42.47;99336.06;5040620;28;8849;-80
2023/05/02 05:55:36;;;;;;;;;12.20;9.20;;;;;14.77;42.03;99336.63;5046830;28;8880;-80
2023/05/02 05:58:08;;;;;;;;;11.60;11.60;;;;;14.74;42.53;99334.13;5066127;28;9778;-82
2023/05/02 06:00:41;;;;;;;;;11.00;11.00;;;;;14.83;42.72;99341.69;5061867;28;8856;-81
2023/05/02 06:03:11;;;;;;;;;11.80;11.80;;;;;15.01;42.19;99340.88;5041441;28;8938;-80
2023/05/02 06:05:42;;;;;;;;;13.60;12.20;;;;;14.96;41.76;99342.00;5067137;28;8885;-80
2023/05/02 06:08:11;;;;;;;;;12.00;12.00;;;;;15.13;41.40;99341.28;5055398;28;8869;-80
2023/05/02 06:10:40;;;;;;;;;10.40;10.40;;;;;15.21;41.17;99340.03;5046471;28;8853;-81
2023/05/02 06:13:09;;;;;;;;;12.00;11.80;;;;;15.19;41.79;99344.53;4996542;28;8861;-81
2023/05/02 06:15:42;;;;;;;;;12.00;11.80;;;;;15.40;41.17;99340.09;5032408;28;8849;-83
2023/05/02 06:18:11;;;;;;;;;11.80;11.40;;;;;15.35;41.28;99339.41;5073405;28;8846;-81
2023/05/02 06:20:40;;;;;;;;;11.20;11.20;;;;;15.53;40.72;99342.19;5032585;28;8862;-80
2023/05/02 06:23:10;;;;;;;;;12.40;11.20;;;;;15.69;40.63;99335.31;5055842;28;8869;-80
2023/05/02 06:25:38;;;;;;;;;14.40;13.20;;;;;15.68;40.80;99335.34;5047523;28;8861;-80
2023/05/02 06:28:08;;;;;;;;;12.80;12.80;;;;;15.85;40.50;99338.13;5045931;28;8861;-80
2023/05/02 06:30:37;;;;;;;;;12.40;12.40;;;;;15.92;40.38;99330.72;5048798;28;8831;-80
2023/05/02 06:33:06;;;;;;;;;12.20;12.20;;;;;16.02;39.85;99343.50;5065957;28;8927;-79
2023/05/02 06:35:35;;;;;;;;;12.20;12.20;;;;;15.97;40.11;99326.09;5066351;28;8914;-80
2023/05/02 06:38:04;;;;;;;;;11.00;10.80;;;;;16.03;40.22;99347.84;5065540;28;8874;-83
2023/05/02 06:40:36;;;;;;;;;12.20;12.20;;;;;16.24;39.53;99347.78;5066737;28;8850;-82
2023/05/02 06:43:05;;;;;;;;;12.40;11.20;;;;;16.48;39.25;99339.63;5032447;28;8880;-81
2023/05/02 06:45:34;;;;;;;;;14.80;13.80;;;;;16.49;39.42;99344.81;5049961;28;8851;-83
2023/05/02 06:48:03;;;;;;;;;13.60;13.60;;;;;16.58;39.12;99343.53;5066691;28;9635;-81
2023/05/02 06:50:32;;;;;;;;;11.60;11.60;;;;;16.70;38.27;99342.03;5049183;28;8873;-83
2023/05/02 06:53:02;;;;;;;;;13.80;12.60;;;;;16.87;38.24;99342.09;4997728;28;8839;-80
2023/05/02 06:55:30;;;;;;;;;14.60;13.60;;;;;16.99;37.69;99336.13;5067850;28;8855;-82
2023/05/02 06:58:01;;;;;;;;;15.40;13.40;;;;;17.17;37.41;99328.16;5046484;28;8868;-81
2023/05/02 07:00:29;;;;;;;;;14.20;14.00;;;;;17.28;36.95;99333.81;5048590;28;8916;-81
2023/05/02 07:02:59;;;;;;;;;15.60;13.80;;;;;17.35;37.23;99332.56;5065137;28;8877;-71
2023/05/02 07:05:27;;;;;;;;;10.60;8.80;;;;;17.41;36.57;99333.19;5057026;28;8999;-72
2023/05/02 07:07:56;;;;;;;;;17.60;15.00;;;;;17.50;36.47;99325.56;5059946;28;8869;-73
2023/05/02 07:10:25;;;;;;;;;15.40;14.80;;;;;17.55;36.19;99333.28;5056167;28;8870;-71
2023/05/02 07:12:54;;;;;;;;;14.40;11.60;;;;;17.53;36.01;99338.72;5048885;28;8907;-70
2023/05/02 07:15:24;;;;;;;;;12.60;12.60;;;;;17.54;35.90;99328.94;5038582;28;8855;-73
2023/05/02 07:17:53;;;;;;;;;13.80;13.80;;;;;17.53;35.59;99337.81;5061738;28;8882;-72
2023/05/02 07:20:23;;;;;;;;;12.00;12.00;;;;;17.57;35.87;99336.72;5063682;28;8861;-72
2023/05/02 07:22:51;;;;;;;;;12.20;11.40;;;;;17.63;35.50;99333.75;5054019;28;8850;-73
2023/05/02 07:25:20;;;;;;;;;12.20;11.00;;;;;17.63;35.20;99343.50;5055408;28;8908;-75
2023/05/02 07:27:49;;;;;;;;;14.00;12.20;;;;;17.64;35.14;99335.47;5062802;28;8859;-75
2023/05/02 07:30:18;;;;;;;;;13.60;12.60;;;;;17.66;35.62;99344.22;5056997;28;8862;-76
2023/05/02 07:32:48;;;;;;;;;13.20;11.20;;;;;17.82;35.43;99335.44;5047903;28;8897;-74
2023/05/02 07:35:17;;;;;;;;;14.20;14.20;;;;;17.94;35.31;99326.75;5060306;28;8853;-72
2023/05/02 07:37:46;;;;;;;;;11.00;10.00;;;;;17.96;34.79;99338.16;5037614;28;8861;-81
2023/05/02 07:40:15;;;;;;;;;11.20;11.20;;;;;18.10;34.76;99345.41;5027825;28;8983;-79
2023/05/02 07:42:44;;;;;;;;;12.20;12.00;;;;;18.21;34.62;99342.16;5045298;28;8853;-80
2023/05/02 07:45:12;;;;;;;;;10.60;10.00;;;;;18.28;34.33;99344.38;5053933;28;8971;-82
2023/05/02 07:47:41;;;;;;;;;12.20;11.80;;;;;18.26;34.19;99356.06;5052601;28;8881;-83
2023/05/02 07:50:12;;;;;;;;;14.80;12.20;;;;;18.32;33.84;99340.59;5016312;28;8931;-83
2023/05/02 07:52:41;;;;;;;;;13.80;12.40;;;;;18.45;33.56;99335.44;5059926;28;8834;-82
2023/05/02 07:55:10;;;;;;;;;9.80;9.80;;;;;18.48;33.16;99335.28;5050459;28;8873;-82
2023/05/02 07:57:39;;;;;;;;;11.80;10.80;;;;;18.45;33.53;99334.59;4999564;28;8861;-84
2023/05/02 08:00:10;;;;;;;;;8.20;8.20;;;;;18.26;33.29;99330.31;5086370;28;8947;-83
2023/05/02 08:02:42;;;;;;;;;9.80;9.80;;;;;18.40;33.33;99341.97;5020014;28;8873;-82
2023/05/02 08:05:13;;;;;;;;;8.40;8.40;;;;;18.49;33.48;99344.97;5035646;28;8952;-84
2023/05/02 08:07:43;;;;;;;;;10.00;10.00;;;;;18.49;32.91;99360.09;5019023;28;9712;-81
2023/05/02 08:10:12;;;;;;;;;9.80;9.80;;;;;18.57;32.35;99357.84;5069319;28;8874;-83
2023/05/02 08:12:41;;;;;;;;;9.00;9.00;;;;;18.61;31.65;99356.75;5070950;28;8859;-82
2023/05/02 08:15:12;;;;;;;;;7.00;7.00;;;;;18.61;31.63;99355.88;5068978;28;8862;-77
2023/05/02 08:17:41;;;;;;;;;9.60;9.60;;;;;18.53;31.63;99353.66;5068539;28;8977;-82
2023/05/02 08:20:10;;;;;;;;;8.00;8.00;;;;;18.58;31.57;99348.06;5007463;28;8869;-80
2023/05/02 08:22:41;;;;;;;;;8.60;8.40;;;;;18.56;31.30;99350.81;5058154;28;8985;-81
2023/05/02 08:25:10;;;;;;;;;8.00;8.00;;;;;18.62;31.55;99366.44;5053511;28;8859;-80
2023/05/02 08:27:39;;;;;;;;;9.60;9.00;;;;;18.77;31.30;99348.72;5036628;28;8850;-80
2023/05/02 08:30:08;;;;;;;;;9.20;9.00;;;;;18.72;31.22;99353.44;5060452;28;8868;-82
2023/05/02 08:32:37;;;;;;;;;9.60;9.60;;;;;18.77;30.74;99355.84;5031200;28;8859;-80
2023/05/02 08:35:07;;;;;;;;;7.80;7.80;;;;;18.67;30.84;99351.06;5059424;28;9644;-81
2023/05/02 08:37:36;;;;;;;;;10.60;10.40;;;;;18.65;31.03;99362.75;5048926;28;9561;-82
2023/05/02 08:40:12;;;;;;;;;8.20;8.20;;;;;18.92;30.67;99361.16;4957703;28;8905;-84
2023/05/02 08:42:43;;;;;;;;;8.80;8.80;;;;;18.78;30.46;99363.75;4972167;28;9002;-85
2023/05/02 08:45:14;;;;;;;;;8.40;8.40;;;;;19.06;30.63;99367.47;4971447;28;8878;-84
2023/05/02 08:47:47;;;;;;;;;9.00;9.00;;;;;18.86;30.32;99366.84;4971941;28;8870;-84
2023/05/02 08:50:18;;;;;;;;;12.00;10.20;;;;;18.97;30.64;99362.69;4988497;28;8874;-84
2023/05/02 08:52:49;;;;;;;;;8.20;7.20;;;;;19.01;30.36;99354.44;5003586;28;8886;-86
2023/05/02 08:55:26;;;;;;;;;8.20;7.80;;;;;19.11;29.65;99350.28;5004502;28;8890;-84
2023/05/02 08:57:58;;;;;;;;;8.40;8.40;;;;;19.30;29.86;99362.50;4987715;28;8886;-83
2023/05/02 09:00:27;;;;;;;;;9.00;8.20;;;;;19.36;29.29;99363.94;4984034;28;8868;-84
2023/05/02 09:03:07;;;;;;;;;9.40;9.40;;;;;19.44;29.13;99346.53;4934987;28;8854;-86
2023/05/02 09:05:40;;;;;;;;;7.80;7.80;;;;;19.63;29.21;99345.41;4992206;28;8896;-87
2023/05/02 09:08:10;;;;;;;;;9.00;9.00;;;;;19.65;29.15;99347.06;5003459;28;8875;-84
2023/05/02 09:10:41;;;;;;;;;9.60;7.40;;;;;19.71;29.21;99348.50;4968414;28;8876;-84
2023/05/02 09:13:29;;;;;;;;;9.20;8.40;;;;;19.61;28.92;99355.31;4997549;28;8999;-81
2023/05/02 09:16:01;;;;;;;;;7.80;7.80;;;;;19.60;29.29;99335.81;5022691;28;8933;-86
2023/05/02 09:18:32;;;;;;;;;8.40;8.40;;;;;19.73;29.59;99341.25;5052124;28;8870;-85
2023/05/02 09:21:05;;;;;;;;;5.80;5.80;;;;;19.83;29.47;99346.84;5050137;28;8877;-84
2023/05/02 09:23:37;;;;;;;;;8.00;8.00;;;;;19.97;29.64;99332.63;5029109;28;8849;-88
2023/05/02 09:26:19;;;;;;;;;9.00;9.00;;;;;20.25;29.54;99331.75;4981906;28;8857;-85
2023/05/02 09:28:50;;;;;;;;;8.20;8.00;;;;;20.05;28.30;99328.53;5014054;28;8964;-85
2023/05/02 09:31:21;;;;;;;;;8.80;8.80;;;;;20.15;28.69;99334.13;5016253;28;8866;-85
2023/05/02 09:34:11;;;;;;;;;8.00;8.00;;;;;20.19;28.56;99335.66;5013787;28;8858;-84
2023/05/02 09:36:41;;;;;;;;;7.80;7.80;;;;;20.06;28.58;99345.41;5042481;28;8961;-77
2023/05/02 09:39:12;;;;;;;;;8.00;8.00;;;;;20.32;29.10;99340.25;5027727;28;8867;-80
2023/05/02 09:41:44;;;;;;;;;9.60;9.60;;;;;20.22;28.73;99335.47;5046077;28;8840;-80
2023/05/02 09:44:15;;;;;;;;;10.00;10.00;;;;;20.29;28.54;99344.81;5062486;28;8851;-79
2023/05/02 09:46:45;;;;;;;;;11.40;10.00;;;;;20.26;28.80;99341.50;5031164;28;8870;-79
2023/05/02 09:49:17;;;;;;;;;7.20;7.20;;;;;20.27;28.43;99341.41;5047617;28;8941;-77
2023/05/02 09:51:47;;;;;;;;;11.20;9.60;;;;;20.13;28.38;99330.72;5047469;28;8851;-77
2023/05/02 09:54:35;;;;;;;;;11.60;11.40;;;;;20.29;29.05;99338.59;5064273;28;8828;-78
2023/05/02 09:57:06;;;;;;;;;8.80;8.80;;;;;20.30;29.20;99337.66;5063137;28;8858;-80
2023/05/02 09:59:35;;;;;;;;;11.20;9.20;;;;;20.44;28.90;99340.31;5024502;28;8848;-73
2023/05/02 10:02:06;;;;;;;;;10.20;10.20;;;;;20.52;28.18;99318.44;5032711;28;9021;-75
2023/05/02 10:04:36;;;;;;;;;10.80;10.80;;;;;20.53;28.92;99327.28;5024131;28;8904;-73
2023/05/02 10:07:05;;;;;;;;;9.20;9.20;;;;;20.43;28.92;99322.56;5018742;28;8873;-74
2023/05/02 10:09:37;;;;;;;;;9.40;9.40;;;;;20.35;28.84;99316.00;5007278;28;8884;-75
2023/05/02 10:12:07;;;;;;;;;10.60;10.60;;;;;20.34;28.57;99325.81;4959077;28;8837;-75
2023/05/02 10:14:41;;;;;;;;;9.00;8.00;;;;;20.18;29.04;99325.94;5023212;28;8878;-75
2023/05/02 10:17:13;;;;;;;;;10.20;10.00;;;;;20.16;29.25;99322.53;5023345;28;8883;-73
2023/05/02 10:19:54;;;;;;;;;9.80;9.00;;;;;20.25;29.61;99321.09;5023256;28;8850;-74
2023/05/02 10:22:23;;;;;;;;;11.00;11.00;;;;;20.40;28.81;99308.56;5022450;28;8964;-76
2023/05/02 10:24:53;;;;;;;;;10.20;9.60;;;;;20.45;28.67;99328.66;5007765;28;9000;-78
2023/05/02 10:27:25;;;;;;;;;10.00;10.00;;;;;20.58;28.15;99312.69;5027777;28;8861;-77
2023/05/02 10:29:56;;;;;;;;;4.20;4.20;;;;;20.69;28.33;99320.00;5044295;28;8978;-76
2023/05/02 10:32:28;;;;;;;;;10.00;8.60;;;;;20.80;28.27;99316.56;5056482;28;8952;-78
2023/05/02 10:35:02;;;;;;;;;9.60;9.40;;;;;20.92;27.78;99320.25;5084488;28;8859;-75
2023/05/02 10:37:33;;;;;;;;;9.20;9.20;;;;;21.10;28.08;99316.34;5057908;28;8838;-80
2023/05/02 10:40:04;;;;;;;;;9.40;9.00;;;;;21.16;28.47;99323.09;5048461;28;8858;-75
2023/05/02 10:42:39;;;;;;;;;8.00;8.00;;;;;21.25;26.85;99317.09;5048167;28;8871;-77
2023/05/02 10:45:12;;;;;;;;;7.40;7.40;;;;;21.30;26.67;99319.47;5064451;28;8864;-76
2023/05/02 10:47:41;;;;;;;;;7.80;7.80;;;;;21.40;26.51;99318.72;5064282;28;8851;-77
2023/05/02 10:50:10;;;;;;;;;8.40;8.40;;;;;21.43;26.83;99315.84;5064818;28;8895;-76
2023/05/02 10:52:39;;;;;;;;;7.40;7.40;;;;;21.30;27.09;99317.66;5063277;28;8859;-79
2023/05/02 10:55:16;;;;;;;;;9.80;9.80;;;;;21.36;27.18;99311.88;5041138;28;8845;-77
2023/05/02 10:58:23;;;;;;;;;9.00;7.60;;;;;21.56;27.23;99315.84;5007031;28;8978;-76
2023/05/02 11:00:52;;;;;;;;;8.00;8.00;;;;;21.74;27.08;99329.75;5034627;28;8900;-73
2023/05/02 11:03:55;;;;;;;;;7.40;7.00;;;;;21.80;26.57;99321.28;4992941;28;8867;-76
2023/05/02 11:06:25;;;;;;;;;9.20;9.20;;;;;21.89;26.16;99326.94;4952892;28;8860;-78
2023/05/02 11:09:14;;;;;;;;;8.60;8.60;;;;;21.81;26.36;99316.78;5002582;28;8878;-77
2023/05/02 11:11:44;;;;;;;;;9.20;9.20;;;;;21.93;26.46;99318.56;5003990;28;8878;-77
2023/05/02 11:14:46;;;;;;;;;7.40;7.40;;;;;22.17;26.33;99321.28;5017572;28;8953;-77
2023/05/02 11:17:16;;;;;;;;;10.20;9.40;;;;;22.36;26.35;99320.84;5025104;28;8836;-84
2023/05/02 11:20:27;;;;;;;;;9.20;9.20;;;;;22.59;25.75;99312.91;5027209;28;8906;-78
2023/05/02 11:23:01;;;;;;;;;8.00;8.00;;;;;22.66;25.52;99308.81;5016828;28;8910;-77
2023/05/02 11:25:34;;;;;;;;;11.40;10.60;;;;;22.48;25.94;99323.56;5027463;28;8871;-76
2023/05/02 11:28:07;;;;;;;;;10.00;10.00;;;;;22.51;25.60;99313.50;5027099;28;8859;-74
2023/05/02 11:30:42;;;;;;;;;9.00;9.00;;;;;22.77;25.35;99319.56;5011027;28;9482;-75
2023/05/02 11:33:15;;;;;;;;;9.40;9.40;;;;;22.78;25.34;99312.38;5027280;28;8944;-76
2023/05/02 11:35:46;;;;;;;;;9.80;9.80;;;;;22.93;25.31;99321.13;5027557;28;8886;-74
2023/05/02 11:38:26;;;;;;;;;8.60;8.60;;;;;23.10;25.09;99309.09;5025594;28;8890;-74
2023/05/02 11:40:57;;;;;;;;;9.00;9.00;;;;;23.07;25.15;99303.97;5011009;28;8953;-75
2023/05/02 11:43:28;;;;;;;;;9.00;9.00;;;;;23.15;24.87;99323.00;5042403;28;9739;-74
2023/05/02 11:46:03;;;;;;;;;10.40;10.00;;;;;23.18;24.44;99320.06;5055672;28;8894;-76
2023/05/02 11:48:32;;;;;;;;;9.60;9.60;;;;;23.48;23.79;99307.94;5030848;28;8853;-77
2023/05/02 11:51:05;;;;;;;;;7.40;7.40;;;;;23.56;24.29;99306.41;5050011;28;8857;-75